• Join FlightAware (Why Join?)
  • Login
  • US Flag 
11:50PM EST


 

Airport Tracker/Info


-or-


 

Live Flight TrackerFlight Track Log ✈ N311GM ✈ 07-Jul-2014 ✈ KSTF - MHLM / SAP

Flight Track Log - Related Links

Times and Time Zones

All times are in EDT time to prevent confusion due to time zone crossing. See the N311GM flight status page for this flight to view local times or setup timezone preferences in your user account.

Time Position Orientation Groundspeed Altitude Reporting Facility
EDT Latitude Longitude Course Direction KTS MPH feet Rate Location/Type
07:08AM 33.3925 -88.8633 191° South 123 142 2,600  Level Memphis Center
07:09AM 33.3486 -88.8739 191° South 155 178 4,600 1,800 Climbing Memphis Center
07:10AM 33.3014 -88.8892 195° South 166 191 6,300 1,800 Climbing Memphis Center
07:11AM 33.2478 -88.9058 195° South 191 220 8,300 1,920 Climbing Memphis Center
07:12AM 33.1956 -88.9208 194° South 193 222 10,200 1,740 Climbing Memphis Center
07:13AM 33.1444 -88.9372 195° South 193 222 11,900 1,680 Climbing Memphis Center
07:14AM 33.0917 -88.9531 194° South 193 222 13,700 1,620 Climbing Memphis Center
07:15AM 33.0294 -88.9742 196° South 193 222 15,300 1,560 Climbing Memphis Center
07:16AM 32.9750 -88.9894 193° South 198 228 16,900 1,380 Climbing Memphis Center
07:17AM 32.9242 -89.0050 194° South 194 223 18,200 1,200 Climbing Memphis Center
07:18AM 32.8725 -89.0208 194° South 193 222 19,400 1,140 Climbing Memphis Center
07:19AM 32.8194 -89.0367 194° South 194 223 20,600 1,080 Climbing Memphis Center
07:20AM 32.7653 -89.0525 194° South 197 227 21,600 960 Climbing Memphis Center
07:21AM 32.7086 -89.0694 194° South 207 238 22,600 900 Climbing Memphis Center
07:22AM 32.6503 -89.0878 195° South 213 245 23,500 900 Climbing Memphis Center
07:23AM 32.5911 -89.1053 194° South 214 246 24,500 900 Climbing Memphis Center
07:24AM 32.5328 -89.1231 194° South 215 247 25,400 840 Climbing Memphis Center
07:25AM 32.4733 -89.1417 195° South 215 247 26,200 720 Climbing Memphis Center
07:26AM 32.4114 -89.1592 193° South 221 254 26,900 780 Climbing Memphis Center
07:27AM 32.3367 -89.1822 195° South 227 261 27,800 720 Climbing Memphis Center
07:28AM 32.2736 -89.2011 194° South 228 262 28,400 540 Climbing Memphis Center
07:29AM 32.2097 -89.2206 194° South 232 267 29,000 540 Climbing Memphis Center
07:30AM 32.1433 -89.2403 194° South 239 275 29,500 540 Climbing Memphis Center
07:31AM 32.0767 -89.2617 195° South 242 278 30,200 540 Climbing Memphis Center
07:32AM 32.0122 -89.2803 194° South 242 278 30,700 480 Climbing Memphis Center
07:33AM 31.9475 -89.3003 195° South 242 278 31,200 360 Climbing Memphis Center
07:34AM 31.8811 -89.3200 194° South 242 278 31,500 300 Climbing Memphis Center
07:35AM 31.8139 -89.3403 194° South 246 283 31,900 240 Climbing Memphis Center
07:36AM 31.7458 -89.3611 195° South 248 285 32,000  Climbing Memphis Center
07:37AM 31.6722 -89.3819 194° South 259 298 32,000  Level Memphis Center
07:38AM 31.5969 -89.4039 194° South 274 315 32,000  Level Houston Center
07:39AM 31.5222 -89.4264 194° South 276 318 32,000  Level Houston Center
07:40AM 31.4450 -89.4497 194° South 282 325 32,000  Level Houston Center
07:41AM 31.3678 -89.4717 194° South 284 327 32,000  Level Houston Center
07:42AM 31.2914 -89.4956 195° South 284 327 32,000  Level Houston Center
07:43AM 31.2200 -89.5167 194° South 284 327 32,000  Level Houston Center
07:44AM 31.1272 -89.5436 194° South 284 327 32,000  Level Houston Center
07:45AM 31.0511 -89.5656 194° South 284 327 32,000  Level Houston Center
07:46AM 30.9744 -89.5886 194° South 284 327 32,000  Level Houston Center
07:47AM 30.8981 -89.6108 194° South 284 327 32,000  Level Houston Center
07:48AM 30.8208 -89.6331 194° South 284 327 32,000  Level Houston Center
07:49AM 30.7439 -89.6558 194° South 284 327 32,000  Level Houston Center
07:50AM 30.6669 -89.6783 194° South 284 327 32,000  Level Houston Center
07:51AM 30.5903 -89.7003 194° South 285 328 32,000  Level Houston Center
07:52AM 30.5136 -89.7225 194° South 285 328 32,000  Level Houston Center
07:53AM 30.4328 -89.7456 194° South 285 328 32,000  Level Houston Center
07:54AM 30.3536 -89.7692 194° South 294 338 32,000  Level Houston Center
07:55AM 30.2769 -89.7894 193° South 288 331 32,000  Level Houston Center
07:56AM 30.1933 -89.8133 194° South 287 330 32,000  Level Houston Center
07:57AM 30.1172 -89.8358 194° South 286 329 32,000  Level Houston Center
07:58AM 30.0400 -89.8581 194° South 286 329 32,000  Level Houston Center
07:59AM 29.9633 -89.8806 194° South 285 328 32,000  Level Houston Center
08:01AM 29.8719 -89.9069 194° South 285 328 32,000  Level Houston Center
08:02AM 29.7958 -89.9283 194° South 284 327 32,000  Level Houston Center
08:03AM 29.7200 -89.9478 193° South 281 323 32,000 360 Level Houston Center
08:04AM 29.6444 -89.9500 181° South 272 313 32,800 480 Climbing Houston Center
08:05AM 29.5756 -89.9564 185° South 254 292 33,000 60 Climbing Houston Center
08:06AM 29.5042 -89.9608 183° South 254 292 33,000  Level Houston Center
08:07AM 29.4303 -89.9661 184° South 263 303 33,000  Level Houston Center
08:08AM 29.3550 -89.9714 183° South 266 306 33,000  Level Houston Center
08:09AM 29.2789 -89.9769 184° South 271 312 33,000  Level Houston Center
08:10AM 29.2036 -89.9825 184° South 271 312 33,000  Level Houston Center
08:11AM 29.1128 -89.9897 184° South 271 312 33,000  Level Houston Center
08:12AM 29.0378 -89.9958 184° South 271 312 33,000  Level Houston Center
08:13AM 28.9619 -90.0017 184° South 272 313 33,000  Level Houston Center
08:14AM 28.8853 -90.0069 183° South 273 314 33,000  Level Houston Center
08:15AM 28.8094 -90.0133 184° South 273 314 33,000  Level Houston Center
08:16AM 28.7322 -90.0192 184° South 275 316 33,000  Level Houston Center
08:17AM 28.6567 -90.0242 183° South 275 316 33,000  Level Houston Center
08:18AM 28.5794 -90.0294 183° South 275 316 33,000  Level Houston Center
08:19AM 28.5028 -90.0347 183° South 275 316 33,000  Level Houston Center
08:20AM 28.4111 -90.0431 185° South 275 316 33,000  Level Houston Center
08:21AM 28.3353 -90.0481 183° South 275 316 33,000  Level Houston Center
08:22AM 28.2594 -90.0517 182° South 274 315 33,000  Level Houston Center
08:23AM 28.1842 -90.0514 180° South 272 313 33,000  Level Houston Center
08:24AM 28.1075 -90.0436 175° South 271 312 33,000  Level Houston Center
08:25AM 28.0317 -90.0372 176° South 271 312 33,000  Level Houston Center
08:26AM 27.9567 -90.0322 177° South 272 313 33,000  Level Houston Center
08:27AM 27.8817 -90.0294 178° South 271 312 33,000  Level Houston Center
08:28AM 27.7914 -90.0281 179° South 271 312 33,000  Level Houston Center
08:29AM 27.7156 -90.0244 178° South 271 312 33,000  Level Houston Center
08:30AM 27.6403 -90.0222 179° South 271 312 33,000  Level Houston Center
08:31AM 27.5656 -90.0181 177° South 271 312 33,000  Level Houston Center
08:33AM 27.4680 -90.0113 176° South  Level FlightAware Approximate
08:40AM 26.9495 -89.9757 176° South  Level FlightAware Approximate
08:41AM 26.8754 -89.9707 177° South  Level FlightAware Approximate
08:42AM 26.8013 -89.9656 176° South  Level FlightAware Approximate
08:43AM 26.7273 -89.9603 176° South  Level FlightAware Approximate
08:44AM 26.6532 -89.9550 176° South  Level FlightAware Approximate
08:45AM 26.5791 -89.9497 176° South  Level FlightAware Approximate
08:46AM 26.5051 -89.9444 176° South  Level FlightAware Approximate
08:47AM 26.4310 -89.9391 176° South  Level FlightAware Approximate
08:48AM 26.3569 -89.9338 176° South  Level FlightAware Approximate
08:49AM 26.2828 -89.9301 178° South  Level FlightAware Approximate
08:50AM 26.2087 -89.9266 178° South  Level FlightAware Approximate
08:51AM 26.1345 -89.9230 178° South  Level FlightAware Approximate
08:52AM 26.0604 -89.9195 178° South  Level FlightAware Approximate
08:53AM 25.9862 -89.9160 178° South  Level FlightAware Approximate
08:54AM 25.9121 -89.9124 178° South  Level FlightAware Approximate
08:55AM 25.8379 -89.9089 178° South  Level FlightAware Approximate
08:56AM 25.7638 -89.9054 178° South  Level FlightAware Approximate
08:57AM 25.6896 -89.9019 178° South  Level FlightAware Approximate
08:58AM 25.6155 -89.8980 177° South  Level FlightAware Approximate
08:59AM 25.5414 -89.8936 177° South  Level FlightAware Approximate
09:00AM 25.4672 -89.8893 177° South  Level FlightAware Approximate
09:01AM 25.3931 -89.8850 177° South  Level FlightAware Approximate
09:02AM 25.3190 -89.8807 177° South  Level FlightAware Approximate
09:03AM 25.2449 -89.8764 177° South  Level FlightAware Approximate
09:04AM 25.1708 -89.8721 177° South  Level FlightAware Approximate
09:05AM 25.0967 -89.8678 177° South  Level FlightAware Approximate
09:06AM 25.0226 -89.8635 177° South  Level FlightAware Approximate
09:07AM 24.9484 -89.8592 177° South  Level FlightAware Approximate
09:08AM 24.8743 -89.8549 177° South  Level FlightAware Approximate
09:09AM 24.8002 -89.8506 177° South  Level FlightAware Approximate
09:10AM 24.7261 -89.8463 177° South  Level FlightAware Approximate
09:11AM 24.6520 -89.8421 177° South  Level FlightAware Approximate
09:12AM 24.5779 -89.8378 177° South  Level FlightAware Approximate
09:13AM 24.5037 -89.8335 177° South  Level FlightAware Approximate
09:14AM 24.4296 -89.8309 178° South  Level FlightAware Approximate
09:15AM 24.3554 -89.8275 178° South  Level FlightAware Approximate
09:16AM 24.2813 -89.8241 178° South  Level FlightAware Approximate
09:17AM 24.2071 -89.8207 178° South  Level FlightAware Approximate
09:18AM 24.1330 -89.8174 178° South  Level FlightAware Approximate
09:19AM 24.0588 -89.8140 178° South  Level FlightAware Approximate
09:20AM 23.9847 -89.8106 178° South  Level FlightAware Approximate
09:21AM 23.9105 -89.8073 178° South  Level FlightAware Approximate
09:22AM 23.8363 -89.8039 178° South  Level FlightAware Approximate
09:23AM 23.7622 -89.8006 178° South  Level FlightAware Approximate
09:24AM 23.6881 -89.7962 177° South  Level FlightAware Approximate
09:25AM 23.6140 -89.7916 177° South  Level FlightAware Approximate
09:26AM 23.5399 -89.7870 177° South  Level FlightAware Approximate
09:27AM 23.4658 -89.7824 177° South  Level FlightAware Approximate
09:28AM 23.3917 -89.7778 177° South  Level FlightAware Approximate
09:29AM 23.3176 -89.7733 177° South  Level FlightAware Approximate
09:30AM 23.2435 -89.7687 177° South  Level FlightAware Approximate
09:31AM 23.1694 -89.7641 177° South  Level FlightAware Approximate
09:32AM 23.0953 -89.7596 177° South  Level FlightAware Approximate
09:33AM 23.0212 -89.7550 177° South  Level FlightAware Approximate
09:34AM 22.9471 -89.7505 177° South  Level FlightAware Approximate
09:35AM 22.8730 -89.7459 177° South  Level FlightAware Approximate
09:36AM 22.7989 -89.7414 177° South  Level FlightAware Approximate
09:37AM 22.7248 -89.7369 177° South  Level FlightAware Approximate
09:38AM 22.6507 -89.7327 178° South  Level FlightAware Approximate
09:39AM 22.5765 -89.7299 178° South  Level FlightAware Approximate
09:40AM 22.5023 -89.7270 178° South  Level FlightAware Approximate
09:41AM 22.4282 -89.7242 178° South  Level FlightAware Approximate
09:42AM 22.3540 -89.7213 178° South  Level FlightAware Approximate
09:43AM 22.2798 -89.7185 178° South  Level FlightAware Approximate
09:44AM 22.2057 -89.7150 177° South  Level FlightAware Approximate
09:45AM 22.1316 -89.7107 177° South  Level FlightAware Approximate
09:46AM 22.0575 -89.7063 177° South  Level FlightAware Approximate
09:47AM 21.9834 -89.7020 177° South  Level FlightAware Approximate
09:48AM 21.9093 -89.6979 177° South  Level FlightAware Approximate
09:49AM 21.8351 -89.6939 177° South  Level FlightAware Approximate
09:50AM 21.7610 -89.6900 177° South  Level FlightAware Approximate
09:51AM 21.6869 -89.6861 177° South  Level FlightAware Approximate
09:52AM 21.6127 -89.6821 177° South  Level FlightAware Approximate
09:53AM 21.5386 -89.6778 177° South  Level FlightAware Approximate
09:54AM 21.4645 -89.6734 177° South  Level FlightAware Approximate
09:55AM 21.3904 -89.6690 177° South  Level FlightAware Approximate
09:56AM 21.3163 -89.6653 178° South  Level FlightAware Approximate
09:57AM 21.2421 -89.6623 178° South  Level FlightAware Approximate
09:58AM 21.1680 -89.6594 178° South  Level FlightAware Approximate
09:59AM 21.0938 -89.6564 178° South  Level FlightAware Approximate
10:00AM 21.0196 -89.6534 178° South  Level FlightAware Approximate
10:01AM 20.9455 -89.6505 178° South  Level FlightAware Approximate
10:02AM 20.8753 -89.6265 159° South  Level FlightAware Approximate
10:03AM 20.8059 -89.5983 159° South  Level FlightAware Approximate
10:04AM 20.7365 -89.5702 159° South  Level FlightAware Approximate
10:05AM 20.6670 -89.5422 159° South  Level FlightAware Approximate
10:06AM 20.5976 -89.5141 159° South  Level FlightAware Approximate
10:07AM 20.5282 -89.4861 159° South  Level FlightAware Approximate
10:08AM 20.4588 -89.4581 159° South  Level FlightAware Approximate
10:09AM 20.3893 -89.4302 159° South  Level FlightAware Approximate
10:10AM 20.3199 -89.4022 159° South  Level FlightAware Approximate
10:11AM 20.2504 -89.3743 159° South  Level FlightAware Approximate
10:12AM 20.1810 -89.3464 159° South  Level FlightAware Approximate
10:13AM 20.1115 -89.3185 159° South  Level FlightAware Approximate
10:14AM 20.0421 -89.2907 159° South  Level FlightAware Approximate
10:15AM 19.9726 -89.2629 159° South  Level FlightAware Approximate
10:16AM 19.9032 -89.2351 159° South  Level FlightAware Approximate
10:17AM 19.8337 -89.2073 159° South  Level FlightAware Approximate
10:18AM 19.7642 -89.1796 159° South  Level FlightAware Approximate
10:19AM 19.6947 -89.1518 159° South  Level FlightAware Approximate
10:20AM 19.6252 -89.1242 159° South  Level FlightAware Approximate
10:21AM 19.5558 -89.0965 159° South  Level FlightAware Approximate
10:22AM 19.4863 -89.0688 159° South  Level FlightAware Approximate
10:23AM 19.4168 -89.0412 159° South  Level FlightAware Approximate
10:24AM 19.3473 -89.0136 159° South  Level FlightAware Approximate
10:25AM 19.2778 -88.9860 159° South  Level FlightAware Approximate
10:26AM 19.2083 -88.9585 159° South  Level FlightAware Approximate
10:27AM 19.1388 -88.9309 159° South  Level FlightAware Approximate
10:28AM 19.0692 -88.9034 159° South  Level FlightAware Approximate
10:29AM 18.9997 -88.8760 160° South  Level FlightAware Approximate
10:30AM 18.9302 -88.8485 160° South  Level FlightAware Approximate
10:31AM 18.8607 -88.8211 160° South  Level FlightAware Approximate
10:32AM 18.7911 -88.7936 160° South  Level FlightAware Approximate
10:33AM 18.7216 -88.7662 160° South  Level FlightAware Approximate
10:34AM 18.6521 -88.7389 160° South  Level FlightAware Approximate
10:35AM 18.5825 -88.7115 160° South  Level FlightAware Approximate
10:36AM 18.5130 -88.6842 160° South  Level FlightAware Approximate
10:37AM 18.4434 -88.6569 160° South  Level FlightAware Approximate
10:38AM 18.3738 -88.6299 161° South  Level FlightAware Approximate
10:39AM 18.3035 -88.6048 161° South  Level FlightAware Approximate
10:40AM 18.2332 -88.5796 161° South  Level FlightAware Approximate
10:41AM 18.1629 -88.5545 161° South  Level FlightAware Approximate
10:42AM 18.0926 -88.5294 161° South  Level FlightAware Approximate
10:43AM 18.0224 -88.5043 161° South  Level FlightAware Approximate
10:44AM 17.9521 -88.4793 161° South  Level FlightAware Approximate
10:45AM 17.8830 -88.4509 156° South  Level FlightAware Approximate
10:46AM 17.8152 -88.4193 156° South  Level FlightAware Approximate
10:47AM 17.7474 -88.3876 156° South  Level FlightAware Approximate
10:48AM 17.6795 -88.3560 156° South  Level FlightAware Approximate
10:49AM 17.6100 -88.3288 160° South  Level FlightAware Approximate
10:50AM 17.5401 -88.3026 160° South  Level FlightAware Approximate
10:51AM 17.4675 -88.2868 169° South  Level FlightAware Approximate
10:52AM 17.3946 -88.2723 169° South  Level FlightAware Approximate
10:53AM 17.3215 -88.2591 171° South  Level FlightAware Approximate
10:54AM 17.2482 -88.2469 171° South  Level FlightAware Approximate
10:55AM 17.1749 -88.2347 171° South  Level FlightAware Approximate
10:56AM 17.1016 -88.2225 171° South  Level FlightAware Approximate
10:57AM 17.0287 -88.2080 168° South  Level FlightAware Approximate
10:58AM 16.9562 -88.1915 168° South  Level FlightAware Approximate
10:59AM 16.8837 -88.1750 168° South  Level FlightAware Approximate
11:00AM 16.8112 -88.1586 168° South  Level FlightAware Approximate
11:01AM 16.7386 -88.1421 168° South  Level FlightAware Approximate
11:02AM 16.6658 -88.1274 171° South  Level FlightAware Approximate
11:03AM 16.5926 -88.1148 171° South  Level FlightAware Approximate
11:04AM 16.5194 -88.1021 171° South  Level FlightAware Approximate
11:05AM 16.4461 -88.0895 171° South  Level FlightAware Approximate
11:06AM 16.3729 -88.0769 171° South  Level FlightAware Approximate
11:07AM 16.2997 -88.0643 171° South  Level FlightAware Approximate
11:08AM 16.2264 -88.0517 171° South  Level FlightAware Approximate
11:09AM 16.1535 -88.0374 169° South  Level FlightAware Approximate
11:10AM 16.0806 -88.0228 169° South  Level FlightAware Approximate
11:11AM 16.0080 -88.0070 167° South  Level FlightAware Approximate
11:12AM 15.9355 -87.9902 167° South  Level FlightAware Approximate
11:13AM 15.8631 -87.9735 167° South  Level FlightAware Approximate
11:14AM 15.7904 -87.9581 169° South  Level FlightAware Approximate
11:15AM 15.7175 -87.9435 169° South  Level FlightAware Approximate
11:16AM 15.6446 -87.9289 169° South  Level FlightAware Approximate
11:17AM 15.5717 -87.9144 169° South  Level FlightAware Approximate
11:18AM 15.4988 -87.9000 180° South  Level FlightAware Approximate
11:19AM 15.4667 -87.9436 270° West  Level FlightAware Approximate
11:20AM 15.4667 -87.9500 270° West  Level FlightAware Approximate
11:21AM 15.4526 -87.9236 270° West  Level Estimated
11:22AM 15.4526 -87.9236 270° West  Level Estimated
11:23AM 15.4526 -87.9236 270° West  Level Estimated
11:24AM 15.4526 -87.9236 270° West  Level Estimated
11:25AM 15.4526 -87.9236 270° West  Level Estimated
11:26AM 15.4526 -87.9236 270° West  Level Estimated
11:27AM 15.4526 -87.9236 270° West  Level Estimated
11:28AM 15.4526 -87.9236 270° West  Level Estimated
11:29AM 15.4526 -87.9236 270° West  Level Estimated
11:30AM 15.4526 -87.9236 270° West  Level Estimated
11:31AM 15.4526 -87.9236 270° West  Level Estimated